Pagrindinis puslapis
METAR-TAF:

METAR-TAF

Oro uostai :

Sandefjordas, Norvegija

platuma: 59-12N, ilguma: 010-16E, Aukštis: 8 m

Dabartinis oras

Ataskaita buvo paskelbta 35 minutes, ne 12:20 UTC
Vėjas 2 kt nuo kintamojo kryptimis
Temperatūra -4°C
Drėgmė 68%
Slėgis 994 hPa
Matomumas 10 km arba daugiau
nėra debesų žemiau 1500 m ir nėra kamuolinių lietaus debesų

METAR: ENTO 021220Z VRB02KT CAVOK M04/M09 Q0994 NOSIG

Laikas: 13:55 (12:55 UTC)

Prognozė

Prognozė galioja nuo 02 metu 12 UTC su 03 metu 12 UTC
Vėjas 5 kt nuo kintamojo kryptimis
Matomumas 10 km arba daugiau
nėra debesų žemiau 1500 m ir nėra kamuolinių lietaus debesų
Tapsmas
nuo 02 metu 17 UTC su 02 metu 19 UTC
Vėjas 10 kt iš Šiaurės
Tikimybė 30%
nuo 03 metu 04 UTC su 03 metu 09 UTC
Su prošvaistėmis ne aukštis 800 ft

TAF: ENTO 0212/0312 VRB05KT CAVOK BECMG 0217/0219 35010KT PROB30 0304/0309 BKN008

Orai ataskaitas ir orų prognozės (METAR, TAF).

turimą stotys yra geltonos ir raudonos taškus žemėlapyje.

Perkelti pele per norėdami pamatyti stoties vardą.

Tada spustelėkite, norėdami matyti oro stebėjimo ir prognozės.

Norėdami pakeisti žemėlapį: spustelėkite ant žalios mygtukų su juodo kryžiaus žemyn,; žalią mygtuką su brūkšneliu, jei norite nutolinti; arba žalių rodyklių gretimoms žemėlapius.


METAR-TAF: